sensor_id;sensor_type;location;lat;lon;timestamp;temperature;humidity
18126;DHT22;53956;52.442;13.284;2022-10-16T00:00:29;18.00;99.90
18126;DHT22;53956;52.442;13.284;2022-10-16T00:02:56;18.00;99.90
18126;DHT22;53956;52.442;13.284;2022-10-16T00:05:23;18.00;99.90
18126;DHT22;53956;52.442;13.284;2022-10-16T00:07:50;18.00;99.90
18126;DHT22;53956;52.442;13.284;2022-10-16T00:10:17;18.00;99.90
18126;DHT22;53956;52.442;13.284;2022-10-16T00:12:44;18.00;99.90
18126;DHT22;53956;52.442;13.284;2022-10-16T00:15:11;18.10;99.90
18126;DHT22;53956;52.442;13.284;2022-10-16T00:17:38;18.00;99.90
18126;DHT22;53956;52.442;13.284;2022-10-16T00:20:05;18.10;99.90
18126;DHT22;53956;52.442;13.284;2022-10-16T00:22:32;18.10;99.90
18126;DHT22;53956;52.442;13.284;2022-10-16T00:24:59;18.00;99.90
18126;DHT22;53956;52.442;13.284;2022-10-16T00:27:26;17.90;99.90
18126;DHT22;53956;52.442;13.284;2022-10-16T00:29:54;18.00;99.90
18126;DHT22;53956;52.442;13.284;2022-10-16T00:32:21;18.10;99.90
18126;DHT22;53956;52.442;13.284;2022-10-16T00:34:47;18.10;99.90
18126;DHT22;53956;52.442;13.284;2022-10-16T00:37:14;18.10;99.90
18126;DHT22;53956;52.442;13.284;2022-10-16T00:39:40;18.10;99.90
18126;DHT22;53956;52.442;13.284;2022-10-16T00:42:09;18.10;99.90
18126;DHT22;53956;52.442;13.284;2022-10-16T00:44:45;18.10;99.90
18126;DHT22;53956;52.442;13.284;2022-10-16T00:47:17;18.20;99.90
18126;DHT22;53956;52.442;13.284;2022-10-16T00:49:45;18.20;99.90
18126;DHT22;53956;52.442;13.284;2022-10-16T00:52:13;18.20;99.90
18126;DHT22;53956;52.442;13.284;2022-10-16T00:54:40;18.10;99.90
18126;DHT22;53956;52.442;13.284;2022-10-16T00:57:07;18.20;99.90
18126;DHT22;53956;52.442;13.284;2022-10-16T00:59:36;18.20;99.90
18126;DHT22;53956;52.442;13.284;2022-10-16T01:02:05;18.20;99.90
18126;DHT22;53956;52.442;13.284;2022-10-16T01:04:36;18.10;99.90
18126;DHT22;53956;52.442;13.284;2022-10-16T01:07:10;18.10;99.90
18126;DHT22;53956;52.442;13.284;2022-10-16T01:09:47;18.20;99.90
18126;DHT22;53956;52.442;13.284;2022-10-16T01:12:18;18.10;99.90
18126;DHT22;53956;52.442;13.284;2022-10-16T01:14:54;18.10;99.90
18126;DHT22;53956;52.442;13.284;2022-10-16T01:17:27;18.10;99.90
18126;DHT22;53956;52.442;13.284;2022-10-16T01:20:10;18.10;99.90
18126;DHT22;53956;52.442;13.284;2022-10-16T01:22:50;18.10;99.90
18126;DHT22;53956;52.442;13.284;2022-10-16T01:25:27;18.00;99.90
18126;DHT22;53956;52.442;13.284;2022-10-16T01:27:59;18.10;99.90
18126;DHT22;53956;52.442;13.284;2022-10-16T01:30:30;18.20;99.90
18126;DHT22;53956;52.442;13.284;2022-10-16T01:33:02;18.10;99.90
18126;DHT22;53956;52.442;13.284;2022-10-16T01:35:31;18.10;99.90
18126;DHT22;53956;52.442;13.284;2022-10-16T01:38:02;18.10;99.90
18126;DHT22;53956;52.442;13.284;2022-10-16T01:40:31;18.00;99.90
18126;DHT22;53956;52.442;13.284;2022-10-16T01:43:04;18.00;99.90
18126;DHT22;53956;52.442;13.284;2022-10-16T01:45:32;18.20;99.90
18126;DHT22;53956;52.442;13.284;2022-10-16T01:48:01;18.00;99.90
18126;DHT22;53956;52.442;13.284;2022-10-16T01:50:31;18.00;99.90
18126;DHT22;53956;52.442;13.284;2022-10-16T01:52:58;18.00;99.90
18126;DHT22;53956;52.442;13.284;2022-10-16T01:55:28;18.10;99.90
18126;DHT22;53956;52.442;13.284;2022-10-16T01:57:57;17.90;99.90
18126;DHT22;53956;52.442;13.284;2022-10-16T02:00:27;17.90;99.90
18126;DHT22;53956;52.442;13.284;2022-10-16T02:02:57;18.00;99.90
18126;DHT22;53956;52.442;13.284;2022-10-16T02:05:26;18.00;99.90
18126;DHT22;53956;52.442;13.284;2022-10-16T02:07:55;18.00;99.90
18126;DHT22;53956;52.442;13.284;2022-10-16T02:10:22;18.10;99.90
18126;DHT22;53956;52.442;13.284;2022-10-16T02:12:55;18.00;99.90
18126;DHT22;53956;52.442;13.284;2022-10-16T02:15:22;18.00;99.90
18126;DHT22;53956;52.442;13.284;2022-10-16T02:17:50;18.00;99.90
18126;DHT22;53956;52.442;13.284;2022-10-16T02:20:18;18.00;99.90
18126;DHT22;53956;52.442;13.284;2022-10-16T02:22:48;18.00;99.90
18126;DHT22;53956;52.442;13.284;2022-10-16T02:25:19;18.00;99.90
18126;DHT22;53956;52.442;13.284;2022-10-16T02:27:53;18.00;99.90
18126;DHT22;53956;52.442;13.284;2022-10-16T02:30:24;18.10;99.90
18126;DHT22;53956;52.442;13.284;2022-10-16T02:32:53;17.90;99.90
18126;DHT22;53956;52.442;13.284;2022-10-16T02:35:22;18.00;99.90
18126;DHT22;53956;52.442;13.284;2022-10-16T02:37:50;18.10;99.90
18126;DHT22;53956;52.442;13.284;2022-10-16T02:40:18;18.00;99.90
18126;DHT22;53956;52.442;13.284;2022-10-16T02:42:49;18.00;99.90
18126;DHT22;53956;52.442;13.284;2022-10-16T02:45:16;18.00;99.90
18126;DHT22;53956;52.442;13.284;2022-10-16T02:47:43;18.10;99.90
18126;DHT22;53956;52.442;13.284;2022-10-16T02:50:11;18.00;99.90
18126;DHT22;53956;52.442;13.284;2022-10-16T02:52:38;17.90;99.90
18126;DHT22;53956;52.442;13.284;2022-10-16T02:55:05;18.00;99.90
18126;DHT22;53956;52.442;13.284;2022-10-16T02:57:32;18.00;99.90
18126;DHT22;53956;52.442;13.284;2022-10-16T02:59:59;17.90;99.90
18126;DHT22;53956;52.442;13.284;2022-10-16T03:02:25;18.00;99.90
18126;DHT22;53956;52.442;13.284;2022-10-16T03:04:52;18.00;99.90
18126;DHT22;53956;52.442;13.284;2022-10-16T03:07:20;18.00;99.90
18126;DHT22;53956;52.442;13.284;2022-10-16T03:09:46;17.90;99.90
18126;DHT22;53956;52.442;13.284;2022-10-16T03:12:13;17.90;99.90
18126;DHT22;53956;52.442;13.284;2022-10-16T03:14:39;17.90;99.90
18126;DHT22;53956;52.442;13.284;2022-10-16T03:17:06;17.90;99.90
18126;DHT22;53956;52.442;13.284;2022-10-16T03:19:33;17.90;99.90
18126;DHT22;53956;52.442;13.284;2022-10-16T03:22:00;17.90;99.90
18126;DHT22;53956;52.442;13.284;2022-10-16T03:24:28;17.80;99.90
18126;DHT22;53956;52.442;13.284;2022-10-16T03:26:54;17.70;99.90
18126;DHT22;53956;52.442;13.284;2022-10-16T03:29:21;17.70;99.90
18126;DHT22;53956;52.442;13.284;2022-10-16T03:31:47;17.70;99.90
18126;DHT22;53956;52.442;13.284;2022-10-16T03:34:15;17.70;99.90
18126;DHT22;53956;52.442;13.284;2022-10-16T03:36:41;17.90;99.90
18126;DHT22;53956;52.442;13.284;2022-10-16T03:39:08;17.70;99.90
18126;DHT22;53956;52.442;13.284;2022-10-16T03:41:36;17.70;99.90
18126;DHT22;53956;52.442;13.284;2022-10-16T03:44:02;17.70;99.90
18126;DHT22;53956;52.442;13.284;2022-10-16T03:46:29;17.80;99.90
18126;DHT22;53956;52.442;13.284;2022-10-16T03:48:55;17.60;99.90
18126;DHT22;53956;52.442;13.284;2022-10-16T03:51:22;17.60;99.90
18126;DHT22;53956;52.442;13.284;2022-10-16T03:53:49;17.60;99.90
18126;DHT22;53956;52.442;13.284;2022-10-16T03:56:15;17.60;99.90
18126;DHT22;53956;52.442;13.284;2022-10-16T03:58:43;17.60;99.90
18126;DHT22;53956;52.442;13.284;2022-10-16T04:01:10;17.50;99.90
18126;DHT22;53956;52.442;13.284;2022-10-16T04:03:36;17.60;99.90
18126;DHT22;53956;52.442;13.284;2022-10-16T04:06:03;17.60;99.90
18126;DHT22;53956;52.442;13.284;2022-10-16T04:08:30;17.60;99.90
18126;DHT22;53956;52.442;13.284;2022-10-16T04:10:59;17.60;99.90
18126;DHT22;53956;52.442;13.284;2022-10-16T04:13:26;17.60;99.90
18126;DHT22;53956;52.442;13.284;2022-10-16T04:15:54;17.60;99.90
18126;DHT22;53956;52.442;13.284;2022-10-16T04:18:21;17.70;99.90
18126;DHT22;53956;52.442;13.284;2022-10-16T04:20:47;17.70;99.90
18126;DHT22;53956;52.442;13.284;2022-10-16T04:23:14;17.60;99.90
18126;DHT22;53956;52.442;13.284;2022-10-16T04:25:40;17.70;99.90
18126;DHT22;53956;52.442;13.284;2022-10-16T04:28:07;17.60;99.90
18126;DHT22;53956;52.442;13.284;2022-10-16T04:30:33;17.60;99.90
18126;DHT22;53956;52.442;13.284;2022-10-16T04:33:01;17.70;99.90
18126;DHT22;53956;52.442;13.284;2022-10-16T04:35:28;17.50;99.90
18126;DHT22;53956;52.442;13.284;2022-10-16T04:37:57;17.50;99.90
18126;DHT22;53956;52.442;13.284;2022-10-16T04:40:23;17.50;99.90
18126;DHT22;53956;52.442;13.284;2022-10-16T04:42:50;17.40;99.90
18126;DHT22;53956;52.442;13.284;2022-10-16T04:45:17;17.40;99.90
18126;DHT22;53956;52.442;13.284;2022-10-16T04:47:43;17.40;99.90
18126;DHT22;53956;52.442;13.284;2022-10-16T04:50:11;17.30;99.90
18126;DHT22;53956;52.442;13.284;2022-10-16T04:52:38;17.30;99.90
18126;DHT22;53956;52.442;13.284;2022-10-16T04:55:05;17.40;99.90
18126;DHT22;53956;52.442;13.284;2022-10-16T04:57:32;17.30;99.90
18126;DHT22;53956;52.442;13.284;2022-10-16T04:59:59;17.40;99.90
18126;DHT22;53956;52.442;13.284;2022-10-16T05:02:26;17.40;99.90
18126;DHT22;53956;52.442;13.284;2022-10-16T05:04:52;17.30;99.90
18126;DHT22;53956;52.442;13.284;2022-10-16T05:07:20;17.30;99.90
18126;DHT22;53956;52.442;13.284;2022-10-16T05:09:47;17.30;99.90
18126;DHT22;53956;52.442;13.284;2022-10-16T05:12:13;17.40;99.90
18126;DHT22;53956;52.442;13.284;2022-10-16T05:14:40;17.20;99.90
18126;DHT22;53956;52.442;13.284;2022-10-16T05:17:06;17.30;99.90
18126;DHT22;53956;52.442;13.284;2022-10-16T05:19:33;17.30;99.90
18126;DHT22;53956;52.442;13.284;2022-10-16T05:22:00;17.30;99.90
18126;DHT22;53956;52.442;13.284;2022-10-16T05:24:28;17.40;99.90
18126;DHT22;53956;52.442;13.284;2022-10-16T05:26:54;17.30;99.90
18126;DHT22;53956;52.442;13.284;2022-10-16T05:29:21;17.30;99.90
18126;DHT22;53956;52.442;13.284;2022-10-16T05:31:50;17.40;99.90
18126;DHT22;53956;52.442;13.284;2022-10-16T05:34:18;17.30;99.90
18126;DHT22;53956;52.442;13.284;2022-10-16T05:36:44;17.40;99.90
18126;DHT22;53956;52.442;13.284;2022-10-16T05:39:11;17.40;99.90
18126;DHT22;53956;52.442;13.284;2022-10-16T05:41:39;17.40;99.90
18126;DHT22;53956;52.442;13.284;2022-10-16T05:44:06;17.30;99.90
18126;DHT22;53956;52.442;13.284;2022-10-16T05:46:32;17.30;99.90
18126;DHT22;53956;52.442;13.284;2022-10-16T05:48:59;17.30;99.90
18126;DHT22;53956;52.442;13.284;2022-10-16T05:51:26;17.30;99.90
18126;DHT22;53956;52.442;13.284;2022-10-16T05:53:53;17.30;99.90
18126;DHT22;53956;52.442;13.284;2022-10-16T05:56:19;17.40;99.90
18126;DHT22;53956;52.442;13.284;2022-10-16T05:58:47;17.40;99.90
18126;DHT22;53956;52.442;13.284;2022-10-16T06:01:16;17.40;99.90
18126;DHT22;53956;52.442;13.284;2022-10-16T06:03:43;17.40;99.90
18126;DHT22;53956;52.442;13.284;2022-10-16T06:06:10;17.40;99.90
18126;DHT22;53956;52.442;13.284;2022-10-16T06:08:38;17.30;99.90
18126;DHT22;53956;52.442;13.284;2022-10-16T06:11:07;17.30;99.90
18126;DHT22;53956;52.442;13.284;2022-10-16T06:13:34;17.30;99.90
18126;DHT22;53956;52.442;13.284;2022-10-16T06:16:03;17.30;99.90
18126;DHT22;53956;52.442;13.284;2022-10-16T06:18:30;17.40;99.90
18126;DHT22;53956;52.442;13.284;2022-10-16T06:20:57;17.40;99.90
18126;DHT22;53956;52.442;13.284;2022-10-16T06:23:24;17.30;99.90
18126;DHT22;53956;52.442;13.284;2022-10-16T06:25:51;17.40;99.90
18126;DHT22;53956;52.442;13.284;2022-10-16T06:28:18;17.30;99.90
18126;DHT22;53956;52.442;13.284;2022-10-16T06:30:44;17.40;99.90
18126;DHT22;53956;52.442;13.284;2022-10-16T06:33:13;17.40;99.90
18126;DHT22;53956;52.442;13.284;2022-10-16T06:35:40;17.30;99.90
18126;DHT22;53956;52.442;13.284;2022-10-16T06:38:07;17.40;99.90
18126;DHT22;53956;52.442;13.284;2022-10-16T06:40:34;17.30;99.90
18126;DHT22;53956;52.442;13.284;2022-10-16T06:43:00;17.40;99.90
18126;DHT22;53956;52.442;13.284;2022-10-16T06:45:27;17.40;99.90
18126;DHT22;53956;52.442;13.284;2022-10-16T06:47:53;17.40;99.90
18126;DHT22;53956;52.442;13.284;2022-10-16T06:50:21;17.50;99.90
18126;DHT22;53956;52.442;13.284;2022-10-16T06:52:49;17.40;99.90
18126;DHT22;53956;52.442;13.284;2022-10-16T06:55:15;17.60;99.90
18126;DHT22;53956;52.442;13.284;2022-10-16T06:57:42;17.60;99.90
18126;DHT22;53956;52.442;13.284;2022-10-16T07:00:09;17.70;99.90
18126;DHT22;53956;52.442;13.284;2022-10-16T07:02:36;17.90;99.90
18126;DHT22;53956;52.442;13.284;2022-10-16T07:05:03;18.20;99.90
18126;DHT22;53956;52.442;13.284;2022-10-16T07:07:31;18.30;99.90
18126;DHT22;53956;52.442;13.284;2022-10-16T07:09:58;18.30;99.90
18126;DHT22;53956;52.442;13.284;2022-10-16T07:12:24;18.40;99.90
18126;DHT22;53956;52.442;13.284;2022-10-16T07:14:51;18.20;99.90
18126;DHT22;53956;52.442;13.284;2022-10-16T07:17:19;18.20;99.90
18126;DHT22;53956;52.442;13.284;2022-10-16T07:19:46;18.30;99.90
18126;DHT22;53956;52.442;13.284;2022-10-16T07:22:12;18.20;99.90
18126;DHT22;53956;52.442;13.284;2022-10-16T07:24:40;18.30;99.90
18126;DHT22;53956;52.442;13.284;2022-10-16T07:27:08;18.30;99.90
18126;DHT22;53956;52.442;13.284;2022-10-16T07:29:35;18.40;99.90
18126;DHT22;53956;52.442;13.284;2022-10-16T07:32:02;18.50;99.90
18126;DHT22;53956;52.442;13.284;2022-10-16T07:34:29;18.70;99.90
18126;DHT22;53956;52.442;13.284;2022-10-16T07:36:55;18.60;99.90
18126;DHT22;53956;52.442;13.284;2022-10-16T07:39:22;18.60;99.90
18126;DHT22;53956;52.442;13.284;2022-10-16T07:41:50;18.60;99.90
18126;DHT22;53956;52.442;13.284;2022-10-16T07:44:17;18.60;99.90
18126;DHT22;53956;52.442;13.284;2022-10-16T07:46:43;18.60;99.90
18126;DHT22;53956;52.442;13.284;2022-10-16T07:49:10;18.50;99.90
18126;DHT22;53956;52.442;13.284;2022-10-16T07:51:36;18.60;99.90
18126;DHT22;53956;52.442;13.284;2022-10-16T07:54:04;18.50;99.90
18126;DHT22;53956;52.442;13.284;2022-10-16T07:56:31;18.50;99.90
18126;DHT22;53956;52.442;13.284;2022-10-16T07:58:59;18.40;99.90
18126;DHT22;53956;52.442;13.284;2022-10-16T08:01:26;18.40;99.90
18126;DHT22;53956;52.442;13.284;2022-10-16T08:03:53;18.60;99.90
18126;DHT22;53956;52.442;13.284;2022-10-16T08:06:21;18.60;99.90
18126;DHT22;53956;52.442;13.284;2022-10-16T08:08:48;18.60;99.90
18126;DHT22;53956;52.442;13.284;2022-10-16T08:11:14;18.60;99.90
18126;DHT22;53956;52.442;13.284;2022-10-16T08:13:42;18.60;99.90
18126;DHT22;53956;52.442;13.284;2022-10-16T08:16:10;18.50;99.90
18126;DHT22;53956;52.442;13.284;2022-10-16T08:18:37;18.50;99.90
18126;DHT22;53956;52.442;13.284;2022-10-16T08:21:05;18.50;99.90
18126;DHT22;53956;52.442;13.284;2022-10-16T08:23:33;18.50;99.90
18126;DHT22;53956;52.442;13.284;2022-10-16T08:26:03;18.60;99.90
18126;DHT22;53956;52.442;13.284;2022-10-16T08:28:30;18.60;99.90
18126;DHT22;53956;52.442;13.284;2022-10-16T08:31:04;18.70;99.90
18126;DHT22;53956;52.442;13.284;2022-10-16T08:33:31;18.80;99.90
18126;DHT22;53956;52.442;13.284;2022-10-16T08:36:00;18.70;99.90
18126;DHT22;53956;52.442;13.284;2022-10-16T08:38:27;18.80;99.90
18126;DHT22;53956;52.442;13.284;2022-10-16T08:40:56;18.90;99.90
18126;DHT22;53956;52.442;13.284;2022-10-16T08:43:42;18.80;99.90
18126;DHT22;53956;52.442;13.284;2022-10-16T08:46:26;18.80;99.90
18126;DHT22;53956;52.442;13.284;2022-10-16T08:49:00;18.80;99.90
18126;DHT22;53956;52.442;13.284;2022-10-16T08:51:43;18.80;99.90
18126;DHT22;53956;52.442;13.284;2022-10-16T08:54:37;18.90;99.90
18126;DHT22;53956;52.442;13.284;2022-10-16T09:00:24;18.80;99.90
18126;DHT22;53956;52.442;13.284;2022-10-16T09:01:56;18.70;99.90
18126;DHT22;53956;52.442;13.284;2022-10-16T09:07:48;18.90;99.90
18126;DHT22;53956;52.442;13.284;2022-10-16T09:10:25;19.00;99.90
18126;DHT22;53956;52.442;13.284;2022-10-16T09:12:58;19.20;99.90
18126;DHT22;53956;52.442;13.284;2022-10-16T09:15:34;19.40;99.90
18126;DHT22;53956;52.442;13.284;2022-10-16T09:18:09;19.50;99.90
18126;DHT22;53956;52.442;13.284;2022-10-16T09:20:49;19.60;99.90
18126;DHT22;53956;52.442;13.284;2022-10-16T09:23:19;19.50;99.90
18126;DHT22;53956;52.442;13.284;2022-10-16T09:25:48;19.70;99.90
18126;DHT22;53956;52.442;13.284;2022-10-16T09:28:18;19.80;99.90
18126;DHT22;53956;52.442;13.284;2022-10-16T09:30:49;19.90;99.90
18126;DHT22;53956;52.442;13.284;2022-10-16T09:33:21;19.80;99.90
18126;DHT22;53956;52.442;13.284;2022-10-16T09:35:52;19.70;99.90
18126;DHT22;53956;52.442;13.284;2022-10-16T09:38:37;19.80;99.90
18126;DHT22;53956;52.442;13.284;2022-10-16T09:41:21;19.90;99.90
18126;DHT22;53956;52.442;13.284;2022-10-16T09:44:00;19.90;99.90
18126;DHT22;53956;52.442;13.284;2022-10-16T09:46:34;19.90;99.90
18126;DHT22;53956;52.442;13.284;2022-10-16T09:49:18;20.00;99.90
18126;DHT22;53956;52.442;13.284;2022-10-16T09:51:45;19.90;99.90
18126;DHT22;53956;52.442;13.284;2022-10-16T09:54:16;19.90;99.90
18126;DHT22;53956;52.442;13.284;2022-10-16T09:56:43;20.10;99.90
18126;DHT22;53956;52.442;13.284;2022-10-16T09:59:12;20.00;99.90
18126;DHT22;53956;52.442;13.284;2022-10-16T10:01:41;20.10;99.90
18126;DHT22;53956;52.442;13.284;2022-10-16T10:04:09;20.00;99.90
18126;DHT22;53956;52.442;13.284;2022-10-16T10:06:40;20.10;99.90
18126;DHT22;53956;52.442;13.284;2022-10-16T10:09:17;20.00;99.90
18126;DHT22;53956;52.442;13.284;2022-10-16T10:11:48;20.20;99.90
18126;DHT22;53956;52.442;13.284;2022-10-16T10:14:19;20.10;99.90
18126;DHT22;53956;52.442;13.284;2022-10-16T10:16:47;20.00;99.90
18126;DHT22;53956;52.442;13.284;2022-10-16T10:19:16;20.00;99.90
18126;DHT22;53956;52.442;13.284;2022-10-16T10:21:43;20.00;99.90
18126;DHT22;53956;52.442;13.284;2022-10-16T10:24:11;20.10;99.90
18126;DHT22;53956;52.442;13.284;2022-10-16T10:26:44;20.10;99.90
18126;DHT22;53956;52.442;13.284;2022-10-16T10:29:17;20.10;99.90
18126;DHT22;53956;52.442;13.284;2022-10-16T10:31:55;20.00;99.90
18126;DHT22;53956;52.442;13.284;2022-10-16T10:34:39;20.00;99.90
18126;DHT22;53956;52.442;13.284;2022-10-16T10:37:23;20.10;99.90
18126;DHT22;53956;52.442;13.284;2022-10-16T10:39:58;20.20;99.90
18126;DHT22;53956;52.442;13.284;2022-10-16T10:42:36;20.20;99.90
18126;DHT22;53956;52.442;13.284;2022-10-16T10:45:23;20.20;99.90
18126;DHT22;53956;52.442;13.284;2022-10-16T10:48:03;20.40;99.90
18126;DHT22;53956;52.442;13.284;2022-10-16T10:50:39;20.20;99.90
18126;DHT22;53956;52.442;13.284;2022-10-16T10:53:12;20.20;99.90
18126;DHT22;53956;52.442;13.284;2022-10-16T10:55:47;20.30;99.90
18126;DHT22;53956;52.442;13.284;2022-10-16T10:58:27;20.30;99.90
18126;DHT22;53956;52.442;13.284;2022-10-16T11:01:01;20.40;99.90
18126;DHT22;53956;52.442;13.284;2022-10-16T11:03:45;20.30;99.90
18126;DHT22;53956;52.442;13.284;2022-10-16T11:06:17;20.20;99.90
18126;DHT22;53956;52.442;13.284;2022-10-16T11:08:48;20.40;99.90
18126;DHT22;53956;52.442;13.284;2022-10-16T11:11:18;20.50;99.90
18126;DHT22;53956;52.442;13.284;2022-10-16T11:13:54;20.60;99.50
18126;DHT22;53956;52.442;13.284;2022-10-16T11:16:25;20.60;99.60
18126;DHT22;53956;52.442;13.284;2022-10-16T11:18:58;20.80;99.90
18126;DHT22;53956;52.442;13.284;2022-10-16T11:21:29;20.70;99.60
18126;DHT22;53956;52.442;13.284;2022-10-16T11:24:00;20.70;99.00
18126;DHT22;53956;52.442;13.284;2022-10-16T11:26:32;20.70;98.40
18126;DHT22;53956;52.442;13.284;2022-10-16T11:29:04;20.60;97.80
18126;DHT22;53956;52.442;13.284;2022-10-16T11:31:37;20.60;95.50
18126;DHT22;53956;52.442;13.284;2022-10-16T11:34:09;20.50;95.30
18126;DHT22;53956;52.442;13.284;2022-10-16T11:36:47;20.60;95.80
18126;DHT22;53956;52.442;13.284;2022-10-16T11:39:20;20.70;94.20
18126;DHT22;53956;52.442;13.284;2022-10-16T11:41:49;20.50;93.80
18126;DHT22;53956;52.442;13.284;2022-10-16T11:44:33;20.60;94.10
18126;DHT22;53956;52.442;13.284;2022-10-16T11:47:08;20.60;94.30
18126;DHT22;53956;52.442;13.284;2022-10-16T11:49:39;20.70;93.60
18126;DHT22;53956;52.442;13.284;2022-10-16T11:52:12;20.60;93.60
18126;DHT22;53956;52.442;13.284;2022-10-16T11:54:46;20.60;93.30
18126;DHT22;53956;52.442;13.284;2022-10-16T11:57:17;20.40;93.00
18126;DHT22;53956;52.442;13.284;2022-10-16T11:59:48;20.50;93.20
18126;DHT22;53956;52.442;13.284;2022-10-16T12:02:35;20.50;92.50
18126;DHT22;53956;52.442;13.284;2022-10-16T12:05:18;20.40;92.00
18126;DHT22;53956;52.442;13.284;2022-10-16T12:07:51;20.50;91.80
18126;DHT22;53956;52.442;13.284;2022-10-16T12:10:24;20.50;92.30
18126;DHT22;53956;52.442;13.284;2022-10-16T12:12:51;20.50;92.20
18126;DHT22;53956;52.442;13.284;2022-10-16T12:15:22;20.70;92.30
18126;DHT22;53956;52.442;13.284;2022-10-16T12:17:50;20.50;92.10
18126;DHT22;53956;52.442;13.284;2022-10-16T12:20:35;20.60;92.10
18126;DHT22;53956;52.442;13.284;2022-10-16T12:23:05;20.70;91.20
18126;DHT22;53956;52.442;13.284;2022-10-16T12:25:33;20.80;91.60
18126;DHT22;53956;52.442;13.284;2022-10-16T12:28:02;20.90;90.10
18126;DHT22;53956;52.442;13.284;2022-10-16T12:30:32;20.80;90.00
18126;DHT22;53956;52.442;13.284;2022-10-16T12:33:01;20.90;89.20
18126;DHT22;53956;52.442;13.284;2022-10-16T12:35:31;20.90;89.10
18126;DHT22;53956;52.442;13.284;2022-10-16T12:38:07;20.80;89.10
18126;DHT22;53956;52.442;13.284;2022-10-16T12:40:36;20.90;89.30
18126;DHT22;53956;52.442;13.284;2022-10-16T12:43:25;20.90;88.10
18126;DHT22;53956;52.442;13.284;2022-10-16T12:46:02;20.90;87.60
18126;DHT22;53956;52.442;13.284;2022-10-16T12:48:29;21.00;87.60
18126;DHT22;53956;52.442;13.284;2022-10-16T12:50:56;21.00;87.00
18126;DHT22;53956;52.442;13.284;2022-10-16T12:53:25;20.90;86.60
18126;DHT22;53956;52.442;13.284;2022-10-16T12:56:03;21.00;86.40
18126;DHT22;53956;52.442;13.284;2022-10-16T12:58:50;20.90;86.20
18126;DHT22;53956;52.442;13.284;2022-10-16T13:01:31;20.90;86.80
18126;DHT22;53956;52.442;13.284;2022-10-16T13:04:15;21.00;86.50
18126;DHT22;53956;52.442;13.284;2022-10-16T13:06:51;21.00;86.40
18126;DHT22;53956;52.442;13.284;2022-10-16T13:09:44;21.00;86.00
18126;DHT22;53956;52.442;13.284;2022-10-16T13:12:40;21.00;85.90
18126;DHT22;53956;52.442;13.284;2022-10-16T13:15:22;21.00;86.20
18126;DHT22;53956;52.442;13.284;2022-10-16T13:18:00;21.00;86.00
18126;DHT22;53956;52.442;13.284;2022-10-16T13:20:33;20.80;86.90
18126;DHT22;53956;52.442;13.284;2022-10-16T13:23:07;20.80;87.70
18126;DHT22;53956;52.442;13.284;2022-10-16T13:25:45;20.80;87.30
18126;DHT22;53956;52.442;13.284;2022-10-16T13:28:14;20.80;88.00
18126;DHT22;53956;52.442;13.284;2022-10-16T13:30:44;20.70;87.90
18126;DHT22;53956;52.442;13.284;2022-10-16T13:33:16;20.70;88.50
18126;DHT22;53956;52.442;13.284;2022-10-16T13:35:48;20.70;88.50
18126;DHT22;53956;52.442;13.284;2022-10-16T13:38:17;20.80;88.40
18126;DHT22;53956;52.442;13.284;2022-10-16T13:40:52;20.60;88.00
18126;DHT22;53956;52.442;13.284;2022-10-16T13:43:21;20.70;88.50
18126;DHT22;53956;52.442;13.284;2022-10-16T13:46:00;20.80;88.20
18126;DHT22;53956;52.442;13.284;2022-10-16T13:48:29;20.80;88.30
18126;DHT22;53956;52.442;13.284;2022-10-16T13:51:14;20.90;87.20
18126;DHT22;53956;52.442;13.284;2022-10-16T13:53:42;20.90;88.30
18126;DHT22;53956;52.442;13.284;2022-10-16T13:56:11;21.00;90.00
18126;DHT22;53956;52.442;13.284;2022-10-16T13:58:38;21.10;88.20
18126;DHT22;53956;52.442;13.284;2022-10-16T14:01:16;21.10;89.00
18126;DHT22;53956;52.442;13.284;2022-10-16T14:03:45;21.30;94.70
18126;DHT22;53956;52.442;13.284;2022-10-16T14:06:14;21.30;89.50
18126;DHT22;53956;52.442;13.284;2022-10-16T14:08:45;21.40;91.60
18126;DHT22;53956;52.442;13.284;2022-10-16T14:11:12;21.30;87.90
18126;DHT22;53956;52.442;13.284;2022-10-16T14:13:44;21.20;86.70
18126;DHT22;53956;52.442;13.284;2022-10-16T14:16:16;21.20;86.90
18126;DHT22;53956;52.442;13.284;2022-10-16T14:18:50;21.10;87.20
18126;DHT22;53956;52.442;13.284;2022-10-16T14:21:20;21.00;87.50
18126;DHT22;53956;52.442;13.284;2022-10-16T14:23:46;20.90;86.50
18126;DHT22;53956;52.442;13.284;2022-10-16T14:26:16;20.80;87.60
18126;DHT22;53956;52.442;13.284;2022-10-16T14:28:44;20.80;87.10
18126;DHT22;53956;52.442;13.284;2022-10-16T14:31:29;20.90;86.90
18126;DHT22;53956;52.442;13.284;2022-10-16T14:33:58;21.00;85.60
18126;DHT22;53956;52.442;13.284;2022-10-16T14:36:26;20.80;85.10
18126;DHT22;53956;52.442;13.284;2022-10-16T14:39:00;21.00;84.00
18126;DHT22;53956;52.442;13.284;2022-10-16T14:41:28;20.80;85.00
18126;DHT22;53956;52.442;13.284;2022-10-16T14:43:56;21.00;83.60
18126;DHT22;53956;52.442;13.284;2022-10-16T14:46:29;21.00;83.50
18126;DHT22;53956;52.442;13.284;2022-10-16T14:49:01;21.00;83.90
18126;DHT22;53956;52.442;13.284;2022-10-16T14:51:29;21.00;83.80
18126;DHT22;53956;52.442;13.284;2022-10-16T14:53:55;21.00;84.10
18126;DHT22;53956;52.442;13.284;2022-10-16T14:56:24;21.00;83.80
18126;DHT22;53956;52.442;13.284;2022-10-16T14:58:51;21.00;84.00
18126;DHT22;53956;52.442;13.284;2022-10-16T15:01:19;20.90;83.10
18126;DHT22;53956;52.442;13.284;2022-10-16T15:03:46;21.00;83.30
18126;DHT22;53956;52.442;13.284;2022-10-16T15:06:15;20.90;82.80
18126;DHT22;53956;52.442;13.284;2022-10-16T15:08:42;21.00;88.60
18126;DHT22;53956;52.442;13.284;2022-10-16T15:11:11;21.10;85.00
18126;DHT22;53956;52.442;13.284;2022-10-16T15:13:38;21.10;85.40
18126;DHT22;53956;52.442;13.284;2022-10-16T15:16:08;21.10;93.70
18126;DHT22;53956;52.442;13.284;2022-10-16T15:18:36;21.10;91.20
18126;DHT22;53956;52.442;13.284;2022-10-16T15:21:03;21.10;90.40
18126;DHT22;53956;52.442;13.284;2022-10-16T15:23:31;21.10;88.50
18126;DHT22;53956;52.442;13.284;2022-10-16T15:25:58;21.00;85.10
18126;DHT22;53956;52.442;13.284;2022-10-16T15:28:25;21.00;84.10
18126;DHT22;53956;52.442;13.284;2022-10-16T15:30:54;20.90;88.40
18126;DHT22;53956;52.442;13.284;2022-10-16T15:33:30;20.80;86.60
18126;DHT22;53956;52.442;13.284;2022-10-16T15:35:59;20.80;86.80
18126;DHT22;53956;52.442;13.284;2022-10-16T15:38:27;20.80;89.10